createdAt,value
2018-10-17T00:01:46.307Z,101713.12
2018-10-17T00:04:17.416Z,101714.72
2018-10-17T00:06:46.464Z,101720.07
2018-10-17T00:09:15.487Z,101719.81
2018-10-17T00:11:44.529Z,101719.05
2018-10-17T00:14:13.824Z,101714.53
2018-10-17T00:16:42.884Z,101720.38
2018-10-17T00:19:11.962Z,101727.95
2018-10-17T00:21:41.008Z,101725.11
2018-10-17T00:24:10.096Z,101725.30
2018-10-17T00:26:39.138Z,101726.13
2018-10-17T00:29:08.351Z,101724.03
2018-10-17T00:31:37.278Z,101727.90
2018-10-17T00:34:06.348Z,101737.03
2018-10-17T00:36:36.422Z,101736.22
2018-10-17T00:39:07.656Z,101736.24
2018-10-17T00:41:36.872Z,101735.52
2018-10-17T00:44:06.001Z,101734.34
2018-10-17T00:46:35.073Z,101735.09
2018-10-17T00:49:04.352Z,101735.64
2018-10-17T00:51:33.402Z,101734.75
2018-10-17T00:54:02.470Z,101741.00
2018-10-17T00:56:31.668Z,101739.98
2018-10-17T00:59:09.357Z,101741.12
2018-10-17T01:01:38.859Z,101740.77
2018-10-17T01:04:08.243Z,101743.25
2018-10-17T01:06:39.413Z,101742.70
2018-10-17T01:09:13.405Z,101739.50
2018-10-17T01:11:42.653Z,101746.67
2018-10-17T01:14:11.738Z,101743.83
2018-10-17T01:16:41.720Z,101747.69
2018-10-17T01:19:10.867Z,101744.59
2018-10-17T01:21:39.820Z,101733.29
2018-10-17T01:24:08.895Z,101743.14
2018-10-17T01:26:37.946Z,101737.47
2018-10-17T01:29:07.053Z,101741.26
2018-10-17T01:31:36.068Z,101746.41
2018-10-17T01:34:05.120Z,101742.16
2018-10-17T01:36:34.202Z,101737.95
2018-10-17T01:39:03.671Z,101743.47
2018-10-17T01:41:32.736Z,101739.95
2018-10-17T01:44:01.774Z,101741.52
2018-10-17T01:46:30.857Z,101750.62
2018-10-17T01:48:59.953Z,101744.64
2018-10-17T01:51:28.964Z,101742.44
2018-10-17T01:53:58.031Z,101738.58
2018-10-17T01:56:27.076Z,101743.33
2018-10-17T01:58:56.143Z,101734.14
2018-10-17T02:01:25.178Z,101740.49
2018-10-17T02:03:54.235Z,101736.06
2018-10-17T02:06:23.348Z,101738.98
2018-10-17T02:08:52.411Z,101730.00
2018-10-17T02:23:15.463Z,101725.27
2018-10-17T02:25:44.482Z,101724.25
2018-10-17T02:28:13.545Z,101724.70
2018-10-17T02:30:42.645Z,101719.38
2018-10-17T02:33:11.771Z,101726.73
2018-10-17T02:35:40.814Z,101724.42
2018-10-17T02:38:09.878Z,101725.70
2018-10-17T02:40:38.943Z,101733.02
2018-10-17T02:43:08.134Z,101735.21
2018-10-17T02:45:37.131Z,101737.04
2018-10-17T02:48:06.214Z,101736.75
2018-10-17T02:50:35.280Z,101738.42
2018-10-17T02:53:04.392Z,101738.23
2018-10-17T02:55:33.399Z,101739.22
2018-10-17T02:58:02.470Z,101738.06
2018-10-17T03:00:31.490Z,101735.15
2018-10-17T03:03:00.566Z,101740.28
2018-10-17T03:05:29.605Z,101733.67
2018-10-17T03:07:58.703Z,101733.83
2018-10-17T03:10:27.748Z,101738.52
2018-10-17T03:12:56.872Z,101741.02
2018-10-17T03:15:26.794Z,101736.23
2018-10-17T03:17:55.873Z,101742.94
2018-10-17T03:20:24.947Z,101745.22
2018-10-17T03:22:54.073Z,101743.19
2018-10-17T03:25:23.067Z,101747.59
2018-10-17T03:27:52.235Z,101747.23
2018-10-17T03:30:21.192Z,101749.41
2018-10-17T03:32:50.258Z,101751.23
2018-10-17T03:35:19.400Z,101749.82
2018-10-17T03:37:48.487Z,101754.59
2018-10-17T03:40:17.819Z,101758.16
2018-10-17T03:42:46.910Z,101720.28
2018-10-17T03:45:16.017Z,101750.84
2018-10-17T03:47:45.421Z,101757.70
2018-10-17T03:50:14.551Z,101755.59
2018-10-17T03:52:43.649Z,101763.73
2018-10-17T03:55:12.844Z,101762.16
2018-10-17T03:57:41.904Z,101757.02
2018-10-17T04:00:11.095Z,101758.41
2018-10-17T04:02:40.184Z,101755.54
2018-10-17T04:05:09.398Z,101763.78
2018-10-17T04:07:38.740Z,101755.14
2018-10-17T04:10:07.812Z,101752.13
2018-10-17T04:12:36.897Z,101758.15
2018-10-17T04:15:06.384Z,101755.73
2018-10-17T04:17:36.338Z,101761.16
2018-10-17T04:20:05.431Z,101758.24
2018-10-17T04:22:34.549Z,101758.30
2018-10-17T04:25:03.591Z,101759.29
2018-10-17T04:27:32.583Z,101761.86
2018-10-17T04:30:01.635Z,101760.31
2018-10-17T04:32:30.768Z,101759.17
2018-10-17T04:34:59.886Z,101756.61
2018-10-17T04:37:28.927Z,101763.62
2018-10-17T04:39:58.006Z,101756.11
2018-10-17T04:42:27.067Z,101754.88
2018-10-17T04:44:56.143Z,101758.73
2018-10-17T04:47:25.319Z,101762.14
2018-10-17T04:49:54.377Z,101763.20
2018-10-17T04:52:23.585Z,101760.73
2018-10-17T04:54:52.684Z,101769.33
2018-10-17T04:57:21.810Z,101772.87
2018-10-17T04:59:50.860Z,101770.84
2018-10-17T05:02:19.998Z,101773.59
2018-10-17T05:04:49.055Z,101769.74
2018-10-17T05:07:18.201Z,101771.92
2018-10-17T05:09:49.249Z,101773.35
2018-10-17T05:12:18.299Z,101771.77
2018-10-17T05:14:47.446Z,101772.78
2018-10-17T05:17:16.549Z,101777.52
2018-10-17T05:19:45.729Z,101782.95
2018-10-17T05:22:14.763Z,101782.42
2018-10-17T05:24:43.804Z,101783.33
2018-10-17T05:27:12.835Z,101786.58
2018-10-17T05:29:41.913Z,101795.31
2018-10-17T05:32:10.963Z,101797.06
2018-10-17T05:34:39.993Z,101797.98
2018-10-17T05:37:09.095Z,101802.42
2018-10-17T05:39:38.170Z,101800.03
2018-10-17T05:42:07.241Z,101804.22
2018-10-17T05:44:36.324Z,101806.42
2018-10-17T05:47:05.476Z,101803.11
2018-10-17T05:49:34.507Z,101802.27
2018-10-17T05:52:03.553Z,101806.70
2018-10-17T05:54:32.647Z,101806.70
2018-10-17T05:57:01.686Z,101806.87
2018-10-17T05:59:30.728Z,101807.23
2018-10-17T06:02:00.586Z,101815.53
2018-10-17T06:04:29.566Z,101818.71
2018-10-17T06:06:58.618Z,101820.80
2018-10-17T06:09:27.649Z,101826.45
2018-10-17T06:11:56.664Z,101829.77
2018-10-17T06:14:25.699Z,101835.78
2018-10-17T06:16:54.840Z,101832.86
2018-10-17T06:19:23.873Z,101835.11
2018-10-17T06:21:52.910Z,101840.16
2018-10-17T06:24:21.945Z,101842.36
2018-10-17T06:26:51.004Z,101836.98
2018-10-17T06:29:20.035Z,101840.82
2018-10-17T06:31:49.082Z,101840.06
2018-10-17T06:34:18.162Z,101844.97
2018-10-17T06:36:47.210Z,101843.33
2018-10-17T06:39:16.258Z,101851.01
2018-10-17T06:41:45.321Z,101854.84
2018-10-17T06:44:14.343Z,101854.37
2018-10-17T06:46:43.421Z,101854.45
2018-10-17T06:49:12.525Z,101860.50
2018-10-17T06:51:41.509Z,101850.09
2018-10-17T06:54:10.618Z,101847.52
2018-10-17T06:56:39.677Z,101850.03
2018-10-17T06:59:08.736Z,101853.09
2018-10-17T07:01:37.780Z,101856.36
2018-10-17T07:04:06.942Z,101858.00
2018-10-17T07:06:35.963Z,101855.22
2018-10-17T07:09:07.664Z,101850.84
2018-10-17T07:11:36.897Z,101854.95
2018-10-17T07:14:06.137Z,101856.02
2018-10-17T07:16:35.340Z,101852.39
2018-10-17T07:19:05.658Z,101854.30
2018-10-17T07:21:34.655Z,101853.98
2018-10-17T07:24:03.728Z,101856.33
2018-10-17T07:26:32.775Z,101860.73
2018-10-17T07:29:01.841Z,101857.05
2018-10-17T07:31:31.162Z,101860.89
2018-10-17T07:34:00.241Z,101860.22
2018-10-17T07:36:29.262Z,101862.83
2018-10-17T07:38:58.298Z,101865.86
2018-10-17T07:41:27.383Z,101865.92
2018-10-17T07:43:56.427Z,101866.44
2018-10-17T07:46:26.696Z,101869.88
2018-10-17T07:48:55.766Z,101872.45
2018-10-17T07:51:24.831Z,101872.97
2018-10-17T07:53:54.086Z,101875.86
2018-10-17T07:56:23.110Z,101873.30
2018-10-17T07:58:52.133Z,101874.63
2018-10-17T08:01:21.616Z,101886.01
2018-10-17T08:03:50.658Z,101886.06
2018-10-17T08:06:19.738Z,101876.59
2018-10-17T08:08:48.740Z,101883.29
2018-10-17T08:11:17.818Z,101886.00
2018-10-17T08:13:46.945Z,101891.84
2018-10-17T08:16:16.010Z,101889.80
2018-10-17T08:18:45.077Z,101898.13
2018-10-17T08:21:14.161Z,101893.92
2018-10-17T08:23:43.166Z,101895.89
2018-10-17T08:26:12.257Z,101904.76
2018-10-17T08:28:41.309Z,101902.56
2018-10-17T08:31:10.354Z,101899.83
2018-10-17T08:33:39.413Z,101900.59
2018-10-17T08:36:08.684Z,101901.62
2018-10-17T08:38:37.519Z,101898.21
2018-10-17T08:41:06.734Z,101900.89
2018-10-17T08:43:35.695Z,101901.37
2018-10-17T08:46:04.756Z,101902.64
2018-10-17T08:48:33.805Z,101897.97
2018-10-17T08:51:02.850Z,101901.63
2018-10-17T08:53:31.865Z,101899.23
2018-10-17T08:56:00.945Z,101903.93
2018-10-17T08:58:30.079Z,101903.20
2018-10-17T09:00:59.106Z,101902.53
2018-10-17T09:03:28.134Z,101900.96
2018-10-17T09:05:57.182Z,101903.23
2018-10-17T09:08:26.187Z,101905.30
2018-10-17T09:10:55.253Z,101895.29
2018-10-17T09:13:24.378Z,101905.61
2018-10-17T09:15:53.407Z,101905.31
2018-10-17T09:18:22.428Z,101912.18
2018-10-17T09:20:51.923Z,101906.30
2018-10-17T09:23:20.533Z,101912.08
2018-10-17T09:25:50.435Z,101915.89
2018-10-17T09:28:21.216Z,101914.49
2018-10-17T09:30:50.349Z,101914.89
2018-10-17T09:33:19.447Z,101909.22
2018-10-17T09:35:49.631Z,101911.87
2018-10-17T09:38:18.703Z,101912.92
2018-10-17T09:40:47.821Z,101910.34
2018-10-17T09:43:16.988Z,101910.94
2018-10-17T09:45:46.103Z,101911.98
2018-10-17T09:48:15.335Z,101908.55
2018-10-17T09:50:44.381Z,101908.80
2018-10-17T09:53:13.526Z,101905.88
2018-10-17T09:55:42.634Z,101908.65
2018-10-17T09:58:11.856Z,101903.75
2018-10-17T10:00:45.998Z,101902.13
2018-10-17T10:03:15.053Z,101904.13
2018-10-17T10:05:44.102Z,101903.72
2018-10-17T10:08:14.422Z,101898.77
2018-10-17T10:10:43.530Z,101896.82
2018-10-17T10:13:12.551Z,101899.67
2018-10-17T10:15:41.621Z,101900.75
2018-10-17T10:18:11.094Z,101899.97
2018-10-17T10:20:40.122Z,101900.77
2018-10-17T10:23:09.240Z,101905.41
2018-10-17T10:25:38.229Z,101905.97
2018-10-17T10:28:07.348Z,101896.86
2018-10-17T10:30:36.375Z,101889.12
2018-10-17T10:33:05.895Z,101892.97
2018-10-17T10:35:34.973Z,101883.73
2018-10-17T10:38:04.040Z,101886.74
2018-10-17T10:40:33.156Z,101884.97
2018-10-17T10:43:02.495Z,101887.40
2018-10-17T10:45:31.624Z,101886.91
2018-10-17T10:48:00.704Z,101891.44
2018-10-17T10:50:29.756Z,101889.88
2018-10-17T10:52:58.841Z,101884.75
2018-10-17T10:55:27.935Z,101885.27
2018-10-17T10:57:57.053Z,101890.09
2018-10-17T11:00:26.523Z,101889.96
2018-10-17T11:02:55.634Z,101888.84
2018-10-17T11:05:24.868Z,101883.84
2018-10-17T11:07:53.841Z,101883.95
2018-10-17T11:10:22.838Z,101883.00
2018-10-17T11:12:51.933Z,101889.72
2018-10-17T11:15:21.047Z,101886.33
2018-10-17T11:17:50.125Z,101884.61
2018-10-17T11:20:19.203Z,101882.77
2018-10-17T11:22:48.282Z,101885.77
2018-10-17T11:25:17.355Z,101882.04
2018-10-17T11:27:46.458Z,101880.11
2018-10-17T11:30:16.487Z,101875.89
2018-10-17T11:32:45.596Z,101875.73
2018-10-17T11:35:14.748Z,101876.09
2018-10-17T11:37:43.832Z,101873.30
2018-10-17T11:40:12.892Z,101879.38
2018-10-17T11:42:41.939Z,101875.04
2018-10-17T11:45:11.076Z,101879.83
2018-10-17T11:47:40.182Z,101875.73
2018-10-17T11:50:10.085Z,101878.58
2018-10-17T11:52:39.430Z,101867.77
2018-10-17T11:55:08.989Z,101871.15
2018-10-17T11:57:38.566Z,101867.55
2018-10-17T12:00:09.876Z,101868.70
2018-10-17T12:02:39.135Z,101857.69
2018-10-17T12:05:11.233Z,101853.20
2018-10-17T12:07:40.341Z,101851.00
2018-10-17T12:10:11.414Z,101844.88
2018-10-17T12:12:40.587Z,101846.27
2018-10-17T12:15:12.480Z,101847.89
2018-10-17T12:17:41.890Z,101842.42
2018-10-17T12:20:13.663Z,101842.91
2018-10-17T12:22:51.620Z,101844.50
2018-10-17T12:25:20.979Z,101844.41
2018-10-17T12:27:50.302Z,101845.78
2018-10-17T12:30:20.461Z,101844.24
2018-10-17T12:32:49.631Z,101850.27
2018-10-17T12:35:18.902Z,101843.96
2018-10-17T12:37:47.848Z,101850.67
2018-10-17T12:40:17.631Z,101854.97
2018-10-17T12:42:46.660Z,101853.02
2018-10-17T12:45:15.879Z,101851.28
2018-10-17T12:47:45.053Z,101848.56
2018-10-17T12:50:14.316Z,101845.66
2018-10-17T12:52:43.578Z,101855.53
2018-10-17T12:55:12.628Z,101851.06
2018-10-17T12:57:41.708Z,101856.27
2018-10-17T13:00:10.963Z,101853.87
2018-10-17T13:02:42.437Z,101848.97
2018-10-17T13:05:11.697Z,101857.64
2018-10-17T13:07:40.686Z,101856.79
2018-10-17T13:10:10.596Z,101855.48
2018-10-17T13:12:41.595Z,101857.80
2018-10-17T13:15:13.016Z,101854.88
2018-10-17T13:17:43.171Z,101852.64
2018-10-17T13:20:12.233Z,101852.35
2018-10-17T13:22:42.250Z,101851.91
2018-10-17T13:25:11.480Z,101859.02
2018-10-17T13:27:40.484Z,101854.53
2018-10-17T13:30:09.678Z,101859.58
2018-10-17T13:32:38.776Z,101854.44
2018-10-17T13:35:08.033Z,101851.55
2018-10-17T13:37:37.118Z,101858.23
2018-10-17T13:40:06.542Z,101854.39
2018-10-17T13:42:35.698Z,101862.77
2018-10-17T13:45:06.025Z,101858.24
2018-10-17T13:47:35.090Z,101858.06
2018-10-17T13:50:04.272Z,101859.13
2018-10-17T13:52:33.341Z,101860.05
2018-10-17T13:55:02.468Z,101861.83
2018-10-17T13:57:31.551Z,101865.62
2018-10-17T14:00:00.579Z,101862.44
2018-10-17T14:02:29.632Z,101863.61
2018-10-17T14:04:58.688Z,101867.08
2018-10-17T14:07:27.764Z,101869.42
2018-10-17T14:09:56.839Z,101868.28
2018-10-17T14:12:26.002Z,101867.13
2018-10-17T14:14:55.974Z,101872.38
2018-10-17T14:17:25.119Z,101865.00
2018-10-17T14:19:54.317Z,101874.11
2018-10-17T14:22:23.447Z,101868.27
2018-10-17T14:24:52.573Z,101861.83
2018-10-17T14:27:21.637Z,101859.94
2018-10-17T14:29:50.750Z,101863.38
2018-10-17T14:32:19.870Z,101869.26
2018-10-17T14:34:49.042Z,101868.39
2018-10-17T14:37:18.221Z,101872.83
2018-10-17T14:39:47.650Z,101868.70
2018-10-17T14:42:16.887Z,101874.17
2018-10-17T14:44:48.450Z,101879.70
2018-10-17T14:47:17.645Z,101882.61
2018-10-17T14:49:46.918Z,101878.49
2018-10-17T14:52:16.091Z,101884.80
2018-10-17T14:54:45.287Z,101885.69
2018-10-17T14:57:15.887Z,101883.02
2018-10-17T14:59:44.990Z,101883.69
2018-10-17T15:02:14.208Z,101883.58
2018-10-17T15:04:43.578Z,101884.53
2018-10-17T15:07:12.750Z,101891.39
2018-10-17T15:09:41.982Z,101887.89
2018-10-17T15:12:11.178Z,101892.38
2018-10-17T15:14:40.306Z,101895.08
2018-10-17T15:17:09.568Z,101891.07
2018-10-17T15:19:41.098Z,101890.58
2018-10-17T15:22:11.100Z,101893.39
2018-10-17T15:24:40.271Z,101893.28
2018-10-17T15:27:09.494Z,101894.37
2018-10-17T15:29:38.668Z,101896.43
2018-10-17T15:32:07.843Z,101903.41
2018-10-17T15:34:36.978Z,101899.72
2018-10-17T15:37:06.438Z,101896.36
2018-10-17T15:39:37.773Z,101901.63
2018-10-17T15:42:06.884Z,101902.75
2018-10-17T15:44:36.035Z,101900.98
2018-10-17T15:47:05.403Z,101901.88
2018-10-17T15:49:34.578Z,101905.63
2018-10-17T15:52:04.611Z,101907.79
2018-10-17T15:54:33.697Z,101909.09
2018-10-17T15:57:02.815Z,101905.52
2018-10-17T15:59:31.866Z,101907.17
2018-10-17T16:02:01.083Z,101911.92
2018-10-17T16:04:30.235Z,101914.34
2018-10-17T16:06:59.365Z,101918.48
2018-10-17T16:09:28.458Z,101913.81
2018-10-17T16:11:57.535Z,101916.12
2018-10-17T16:14:27.190Z,101919.70
2018-10-17T16:16:56.284Z,101921.88
2018-10-17T16:19:25.438Z,101926.94
2018-10-17T16:21:54.542Z,101920.53
2018-10-17T16:24:23.625Z,101929.45
2018-10-17T16:26:52.723Z,101935.20
2018-10-17T16:29:21.882Z,101938.48
2018-10-17T16:31:50.995Z,101936.62
2018-10-17T16:34:20.182Z,101936.50
2018-10-17T16:36:49.276Z,101946.03
2018-10-17T16:39:18.398Z,101941.80
2018-10-17T16:41:47.456Z,101949.48
2018-10-17T16:44:16.702Z,101941.08
2018-10-17T16:46:45.701Z,101948.31
2018-10-17T16:49:14.855Z,101956.16
2018-10-17T16:51:44.043Z,101953.25
2018-10-17T16:54:13.183Z,101962.30
2018-10-17T16:56:42.237Z,101960.41
2018-10-17T16:59:11.335Z,101962.89
2018-10-17T17:01:40.986Z,101969.25
2018-10-17T17:04:13.044Z,101973.73
2018-10-17T17:06:42.149Z,101975.15
2018-10-17T17:09:12.013Z,101973.97
2018-10-17T17:11:41.147Z,101977.03
2018-10-17T17:14:10.356Z,101978.03
2018-10-17T17:16:39.593Z,101980.88
2018-10-17T17:19:08.765Z,101982.85
2018-10-17T17:21:37.877Z,101982.70
2018-10-17T17:24:06.973Z,101984.70
2018-10-17T17:26:36.079Z,101986.92
2018-10-17T17:29:05.442Z,101989.27
2018-10-17T17:31:34.567Z,101987.10
2018-10-17T17:34:03.647Z,101989.19
2018-10-17T17:36:32.824Z,101988.82
2018-10-17T17:39:01.883Z,101990.65
2018-10-17T17:44:00.467Z,101991.77
2018-10-17T17:46:29.675Z,101995.14
2018-10-17T17:48:58.884Z,101998.12
2018-10-17T17:51:28.019Z,102001.73
2018-10-17T17:53:57.265Z,102006.28
2018-10-17T17:56:26.557Z,102005.23
2018-10-17T17:58:55.856Z,102001.78
2018-10-17T18:01:25.156Z,102001.20
2018-10-17T18:03:54.399Z,102002.77
2018-10-17T18:06:23.590Z,102010.31
2018-10-17T18:08:52.787Z,102010.74
2018-10-17T18:11:24.171Z,102016.23
2018-10-17T18:13:54.691Z,102016.13
2018-10-17T18:16:23.930Z,102019.82
2018-10-17T18:18:53.127Z,102024.27
2018-10-17T18:21:23.892Z,102023.20
2018-10-17T18:23:53.031Z,102017.70
2018-10-17T18:26:22.255Z,102024.92
2018-10-17T18:28:51.380Z,102028.75
2018-10-17T18:31:20.671Z,102032.21
2018-10-17T18:33:49.836Z,102037.22
2018-10-17T18:36:19.008Z,102035.44
2018-10-17T18:38:48.297Z,102040.86
2018-10-17T18:41:17.598Z,102039.11
2018-10-17T18:43:47.052Z,102042.55
2018-10-17T18:46:16.210Z,102045.61
2018-10-17T18:48:45.306Z,102044.80
2018-10-17T18:51:14.467Z,102049.07
2018-10-17T18:53:43.599Z,102047.67
2018-10-17T18:56:12.855Z,102055.83
2018-10-17T18:58:42.196Z,102055.77
2018-10-17T19:01:11.284Z,102059.65
2018-10-17T19:03:40.386Z,102063.41
2018-10-17T19:06:09.427Z,102062.97
2018-10-17T19:08:38.530Z,102072.28
2018-10-17T19:11:07.952Z,102073.58
2018-10-17T19:13:37.094Z,102074.86
2018-10-17T19:16:06.272Z,102080.76
2018-10-17T19:18:35.314Z,102084.34
2018-10-17T19:21:05.977Z,102089.71
2018-10-17T19:23:34.952Z,102089.26
2018-10-17T19:26:03.988Z,102089.81
2018-10-17T19:28:33.018Z,102091.00
2018-10-17T19:31:02.046Z,102093.75
2018-10-17T19:33:31.096Z,102093.19
2018-10-17T19:36:00.172Z,102091.33
2018-10-17T19:38:29.157Z,102098.61
2018-10-17T19:40:58.197Z,102101.91
2018-10-17T19:43:27.266Z,102100.61
2018-10-17T19:45:56.294Z,102092.50
2018-10-17T19:48:25.625Z,102101.52
2018-10-17T19:50:54.711Z,102104.02
2018-10-17T19:53:23.727Z,102104.30
2018-10-17T19:55:52.810Z,102109.82
2018-10-17T19:58:21.835Z,102105.28
2018-10-17T20:00:50.860Z,102110.82
2018-10-17T20:03:19.910Z,102112.70
2018-10-17T20:05:48.954Z,102112.64
2018-10-17T20:08:17.991Z,102116.84
2018-10-17T20:10:47.053Z,102117.48
2018-10-17T20:13:17.098Z,102114.23
2018-10-17T20:15:46.192Z,102121.90
2018-10-17T20:18:15.203Z,102119.59
2018-10-17T20:20:44.270Z,102125.28
2018-10-17T20:23:13.291Z,102127.19
2018-10-17T20:25:44.343Z,102125.41
2018-10-17T20:28:13.365Z,102127.05
2018-10-17T20:30:42.410Z,102127.86
2018-10-17T20:33:11.521Z,102132.91
2018-10-17T20:35:40.553Z,102138.06
2018-10-17T20:38:09.607Z,102137.42
2018-10-17T20:40:38.648Z,102130.40
2018-10-17T20:43:07.674Z,102131.59
2018-10-17T20:45:36.739Z,102131.39
2018-10-17T20:48:05.831Z,102134.67
2018-10-17T20:50:34.885Z,102133.77
2018-10-17T20:53:03.912Z,102128.87
2018-10-17T20:55:32.926Z,102129.48
2018-10-17T20:58:01.990Z,102126.64
2018-10-17T21:00:30.983Z,102132.81
2018-10-17T21:03:00.011Z,102133.23
2018-10-17T21:05:29.041Z,102133.66
2018-10-17T21:07:58.095Z,102140.96
2018-10-17T21:10:27.113Z,102144.65
2018-10-17T21:12:56.166Z,102142.17
2018-10-17T21:15:25.226Z,102141.13
2018-10-17T21:17:54.290Z,102150.67
2018-10-17T21:20:23.363Z,102150.83
2018-10-17T21:22:52.689Z,102147.90
2018-10-17T21:25:21.759Z,102150.47
2018-10-17T21:27:50.826Z,102150.08
2018-10-17T21:30:19.868Z,102150.23
2018-10-17T21:32:48.890Z,102151.26
2018-10-17T21:35:17.948Z,102161.16
2018-10-17T21:37:47.017Z,102151.31
2018-10-17T21:40:16.046Z,102154.52
2018-10-17T21:42:45.062Z,102156.16
2018-10-17T21:45:14.216Z,102162.78
2018-10-17T21:47:43.262Z,102157.94
2018-10-17T21:50:12.424Z,102172.08
2018-10-17T21:52:41.374Z,102170.70
2018-10-17T21:55:10.402Z,102171.39
2018-10-17T21:57:39.435Z,102169.57
2018-10-17T22:00:10.082Z,102167.69
2018-10-17T22:02:39.337Z,102168.17
2018-10-17T22:05:09.498Z,102165.75
2018-10-17T22:07:38.698Z,102164.45
2018-10-17T22:10:08.535Z,102160.60
2018-10-17T22:12:37.917Z,102163.56
2018-10-17T22:15:07.980Z,102165.83
2018-10-17T22:17:37.009Z,102159.85
2018-10-17T22:20:06.560Z,102159.20
2018-10-17T22:22:35.602Z,102158.27
2018-10-17T22:25:04.768Z,102163.65
2018-10-17T22:27:33.807Z,102170.47
2018-10-17T22:30:02.935Z,102165.63
2018-10-17T22:32:31.875Z,102172.35
2018-10-17T22:35:00.916Z,102170.85
2018-10-17T22:37:29.935Z,102170.41
2018-10-17T22:39:58.977Z,102174.05
2018-10-17T22:42:28.024Z,102175.91
2018-10-17T22:44:57.067Z,102179.20
2018-10-17T22:47:26.170Z,102183.73
2018-10-17T22:49:55.243Z,102183.20
2018-10-17T22:52:24.301Z,102179.48
2018-10-17T22:54:53.357Z,102184.18
2018-10-17T22:57:22.390Z,102183.52
2018-10-17T22:59:51.450Z,102190.33
2018-10-17T23:02:20.509Z,102186.23
2018-10-17T23:04:49.560Z,102189.87
2018-10-17T23:07:18.591Z,102187.45
2018-10-17T23:09:48.646Z,102187.84
2018-10-17T23:12:17.695Z,102191.68
2018-10-17T23:14:46.768Z,102196.55
2018-10-17T23:17:15.811Z,102198.64
2018-10-17T23:19:44.853Z,102202.27
2018-10-17T23:22:13.942Z,102198.88
2018-10-17T23:24:43.026Z,102201.36
2018-10-17T23:27:12.097Z,102194.93
2018-10-17T23:29:41.131Z,102202.81
2018-10-17T23:32:10.202Z,102200.77
2018-10-17T23:34:39.187Z,102204.09
2018-10-17T23:37:08.233Z,102207.20
2018-10-17T23:39:37.277Z,102207.95
2018-10-17T23:42:06.733Z,102212.39
2018-10-17T23:44:35.697Z,102215.13
2018-10-17T23:47:04.777Z,102211.95
2018-10-17T23:49:33.866Z,102214.13
2018-10-17T23:52:02.906Z,102212.53
2018-10-17T23:54:31.961Z,102220.37
2018-10-17T23:57:01.004Z,102225.20
2018-10-17T23:59:30.075Z,102224.81
